Khartoum, Sudan
Current Conditions -  °F | °C
As of 3:00 AM on Saturday 22 Nov 2014 (Local Time) from HEBL Reporting Station
Clear Clear  
Wind Chill: 63°   Ceiling: Unl
Heat Index: 63°   Visibility: 6mi
Dew Point: 39°   Wind: 8mph
Humidity: 42%   Direction: 320°NW
Pressure: 30"   Gusts: NA
Location:  15.58°N, 32.52°E
Report Text: HEBL 220000Z 32007KT CAVOK 17/04 Q1016 NOSIG
Loading
Personal Weather Stations






























Interactive Weather Map New forecast layout! Learn more

10-Day Weather Forecast

Advertisements
Track Severe Weather on mobile